Time;durP1;ratioP1;P1;durP2;ratioP2;P2;SDS_P1;SDS_P2;PMS_P1;PMS_P2;Temp;Humidity;BMP_temperature;BMP_pressure;BME280_temperature;BME280_humidity;BME280_pressure;Samples;Min_cycle;Max_cycle;Signal;HPM_P1;HPM_P2
2023/06/27 00:02:17;;;;;;;7.05;2.10;;;22.90;76.80;;;;;;5026958;28;20017;-68
2023/06/27 00:04:43;;;;;;;10.30;1.80;;;22.90;76.70;;;;;;5028791;28;20087;-70
2023/06/27 00:07:10;;;;;;;10.52;2.33;;;22.90;76.70;;;;;;5035832;28;20027;-70
2023/06/27 00:09:35;;;;;;;11.48;2.47;;;22.90;77.00;;;;;;5036004;28;20381;-69
2023/06/27 00:12:01;;;;;;;5.65;1.75;;;22.80;76.90;;;;;;5036217;28;20037;-69
2023/06/27 00:14:26;;;;;;;5.88;1.98;;;22.80;77.10;;;;;;5034364;28;20367;-69
2023/06/27 00:16:52;;;;;;;6.60;1.60;;;22.90;77.30;;;;;;5034576;28;20033;-70
2023/06/27 00:19:17;;;;;;;9.90;2.40;;;22.80;77.30;;;;;;5034783;28;20151;-70
2023/06/27 00:21:43;;;;;;;7.75;2.10;;;22.80;77.60;;;;;;5035747;28;20060;-70
2023/06/27 00:24:09;;;;;;;13.57;2.85;;;22.80;77.70;;;;;;5036037;28;20029;-70
2023/06/27 00:26:35;;;;;;;8.60;2.42;;;22.80;77.80;;;;;;5035783;28;20021;-71
2023/06/27 00:29:01;;;;;;;9.63;2.20;;;22.70;77.70;;;;;;5035552;28;20096;-70
2023/06/27 00:31:26;;;;;;;8.88;2.13;;;22.70;77.80;;;;;;5035483;28;20028;-70
2023/06/27 00:33:52;;;;;;;9.98;2.78;;;22.70;78.00;;;;;;5035709;28;20076;-70
2023/06/27 00:36:18;;;;;;;8.60;1.95;;;22.70;78.10;;;;;;5035633;28;20018;-70
2023/06/27 00:38:43;;;;;;;7.28;2.70;;;22.70;78.20;;;;;;5035697;28;20044;-70
2023/06/27 00:41:09;;;;;;;7.35;2.28;;;22.60;78.40;;;;;;5035380;28;20471;-70
2023/06/27 00:43:34;;;;;;;9.93;2.50;;;22.60;78.50;;;;;;5035169;28;20415;-70
2023/06/27 00:46:04;;;;;;;8.02;2.05;;;22.60;78.50;;;;;;5035478;28;20033;-70
2023/06/27 00:48:32;;;;;;;7.45;2.20;;;22.60;78.50;;;;;;5035429;28;20036;-71
2023/06/27 00:50:59;;;;;;;8.68;2.38;;;22.60;78.60;;;;;;5035485;28;20485;-70
2023/06/27 00:53:26;;;;;;;6.90;2.00;;;22.60;78.70;;;;;;5035167;28;20116;-70
2023/06/27 00:55:51;;;;;;;6.93;1.98;;;22.50;78.80;;;;;;5035293;28;20470;-69
2023/06/27 00:58:18;;;;;;;7.13;1.88;;;22.50;79.10;;;;;;5034942;28;20113;-70
2023/06/27 01:00:44;;;;;;;7.63;2.22;;;22.40;79.00;;;;;;5035185;28;20029;-71
2023/06/27 01:03:10;;;;;;;9.80;2.00;;;22.40;79.10;;;;;;5033835;28;20386;-70
2023/06/27 01:05:35;;;;;;;6.38;1.95;;;22.40;79.30;;;;;;5035203;28;20022;-70
2023/06/27 01:08:16;;;;;;;8.57;2.03;;;22.40;79.50;;;;;;5035192;28;20100;-70
2023/06/27 01:10:48;;;;;;;7.70;2.47;;;22.30;79.70;;;;;;5034988;28;20467;-71
2023/06/27 01:13:32;;;;;;;7.15;2.10;;;22.40;79.70;;;;;;5034537;28;20211;-70
2023/06/27 01:15:58;;;;;;;6.70;2.13;;;22.40;80.50;;;;;;5035037;28;20486;-71
2023/06/27 01:18:27;;;;;;;9.48;2.80;;;22.30;79.80;;;;;;5031166;28;20417;-71
2023/06/27 01:20:53;;;;;;;8.82;2.65;;;22.20;80.20;;;;;;5023666;28;20418;-69
2023/06/27 01:23:28;;;;;;;10.90;1.90;;;22.20;80.50;;;;;;5033022;28;20471;-68
2023/06/27 01:26:01;;;;;;;8.70;2.45;;;22.10;80.80;;;;;;5033951;28;20052;-71
2023/06/27 01:28:27;;;;;;;8.20;2.47;;;22.10;80.90;;;;;;5034419;28;20029;-69
2023/06/27 01:30:52;;;;;;;9.13;2.30;;;22.10;81.00;;;;;;5032629;28;20031;-68
2023/06/27 01:33:21;;;;;;;11.20;2.05;;;22.10;80.90;;;;;;5034125;28;20116;-68
2023/06/27 01:36:10;;;;;;;11.40;2.95;;;22.10;80.90;;;;;;5034652;28;20025;-69
2023/06/27 01:38:51;;;;;;;9.50;2.35;;;22.10;81.00;;;;;;5034501;28;20021;-73
2023/06/27 01:41:20;;;;;;;9.93;2.70;;;22.20;81.10;;;;;;5034206;28;20129;-68
2023/06/27 01:43:48;;;;;;;14.38;2.38;;;22.20;81.10;;;;;;5034252;28;20458;-70
2023/06/27 01:46:14;;;;;;;8.98;1.95;;;22.20;81.20;;;;;;5034318;28;20033;-68
2023/06/27 01:48:40;;;;;;;8.13;2.63;;;22.10;81.30;;;;;;5034146;28;20056;-69
2023/06/27 01:51:07;;;;;;;9.65;3.05;;;22.10;81.50;;;;;;5034361;28;20036;-69
2023/06/27 01:53:33;;;;;;;10.68;2.20;;;22.10;81.60;;;;;;5033985;28;20030;-71
2023/06/27 01:55:59;;;;;;;9.18;2.22;;;22.10;81.70;;;;;;5034009;28;20022;-68
2023/06/27 01:58:25;;;;;;;10.07;2.25;;;22.10;81.90;;;;;;5034019;28;20470;-76
2023/06/27 02:00:50;;;;;;;10.02;2.17;;;22.00;82.10;;;;;;5034137;28;20087;-72
2023/06/27 02:03:16;;;;;;;7.97;2.30;;;22.00;82.30;;;;;;5033943;28;20478;-68
2023/06/27 02:05:42;;;;;;;9.07;2.47;;;22.00;82.40;;;;;;5033990;28;20512;-69
2023/06/27 02:08:07;;;;;;;11.40;2.53;;;21.90;82.50;;;;;;5033784;28;20056;-77
2023/06/27 02:10:33;;;;;;;10.93;2.78;;;22.00;82.60;;;;;;5033746;28;20026;-68
2023/06/27 02:13:01;;;;;;;11.40;3.05;;;22.00;82.60;;;;;;5033755;28;20499;-69
2023/06/27 02:15:26;;;;;;;11.27;2.80;;;22.00;82.90;;;;;;5033911;28;20026;-76
2023/06/27 02:17:52;;;;;;;11.20;2.55;;;21.90;83.00;;;;;;5032326;28;20490;-69
2023/06/27 02:20:17;;;;;;;14.27;2.80;;;21.90;83.20;;;;;;5033806;28;20417;-69
2023/06/27 02:22:43;;;;;;;8.65;2.55;;;21.90;83.40;;;;;;5033608;28;20036;-70
2023/06/27 02:25:09;;;;;;;9.40;2.35;;;21.90;83.60;;;;;;5032170;28;20029;-74
2023/06/27 02:27:34;;;;;;;13.43;2.95;;;21.80;83.50;;;;;;5033624;28;20029;-72
2023/06/27 02:30:00;;;;;;;12.63;3.22;;;21.80;83.80;;;;;;5033496;28;20035;-77
2023/06/27 02:32:25;;;;;;;13.80;2.83;;;21.80;83.90;;;;;;5033481;28;20123;-69
2023/06/27 02:34:51;;;;;;;15.93;3.05;;;21.80;84.10;;;;;;5033359;28;20018;-74
2023/06/27 02:37:16;;;;;;;14.63;2.95;;;21.80;84.40;;;;;;5033618;28;20037;-70
2023/06/27 02:39:42;;;;;;;10.98;2.65;;;21.80;84.50;;;;;;5032781;28;20475;-68
2023/06/27 02:42:07;;;;;;;11.05;3.05;;;21.70;85.10;;;;;;5033083;28;20562;-68
2023/06/27 02:44:33;;;;;;;13.55;3.17;;;21.70;84.80;;;;;;5033258;28;20101;-71
2023/06/27 02:46:58;;;;;;;10.45;2.83;;;21.80;84.90;;;;;;5033381;28;20032;-69
2023/06/27 02:49:24;;;;;;;13.93;3.25;;;21.70;85.00;;;;;;5032010;28;20019;-76
2023/06/27 02:51:49;;;;;;;12.63;2.78;;;21.70;85.10;;;;;;5033320;28;20029;-70
2023/06/27 02:54:15;;;;;;;14.32;3.63;;;21.70;85.30;;;;;;5033002;28;20037;-69
2023/06/27 02:56:41;;;;;;;10.20;2.90;;;21.70;85.20;;;;;;5033244;28;20013;-69
2023/06/27 02:59:06;;;;;;;14.15;3.53;;;21.60;85.40;;;;;;5031989;28;20378;-68
2023/06/27 03:01:32;;;;;;;15.48;3.33;;;21.60;85.60;;;;;;5033331;28;20370;-68
2023/06/27 03:03:57;;;;;;;9.57;2.88;;;21.60;85.60;;;;;;5033009;28;20378;-70
2023/06/27 03:06:23;;;;;;;9.50;2.60;;;21.50;85.70;;;;;;5033370;28;20502;-69
2023/06/27 03:08:49;;;;;;;10.95;2.75;;;21.50;86.10;;;;;;5032722;28;20475;-69
2023/06/27 03:11:15;;;;;;;10.00;3.22;;;21.50;86.00;;;;;;5033049;28;20030;-73
2023/06/27 03:13:40;;;;;;;9.07;2.88;;;21.50;86.10;;;;;;5032995;28;20047;-71
2023/06/27 03:16:06;;;;;;;12.15;3.55;;;21.50;86.40;;;;;;5033051;28;20100;-69
2023/06/27 03:18:31;;;;;;;11.52;2.78;;;21.40;86.50;;;;;;5033211;28;20472;-69
2023/06/27 03:20:57;;;;;;;12.90;3.28;;;21.40;86.70;;;;;;5032952;28;20021;-68
2023/06/27 03:23:22;;;;;;;15.82;3.28;;;21.40;86.90;;;;;;5032797;28;20101;-69
2023/06/27 03:25:48;;;;;;;11.27;3.63;;;21.40;87.00;;;;;;5031623;28;20040;-68
2023/06/27 03:28:14;;;;;;;12.63;2.90;;;21.30;87.10;;;;;;5032940;28;20022;-70
2023/06/27 03:30:43;;;;;;;17.13;3.00;;;21.40;87.30;;;;;;5032744;28;20095;-69
2023/06/27 03:33:09;;;;;;;14.57;3.50;;;21.30;87.50;;;;;;5032920;28;20092;-77
2023/06/27 03:35:35;;;;;;;11.40;3.35;;;21.30;87.50;;;;;;5023692;28;20360;-68
2023/06/27 03:38:02;;;;;;;13.18;2.92;;;21.30;87.70;;;;;;5028683;28;20080;-71
2023/06/27 03:40:28;;;;;;;12.77;3.17;;;21.20;87.70;;;;;;5031414;28;20083;-68
2023/06/27 03:42:55;;;;;;;11.30;2.85;;;21.20;88.10;;;;;;5030179;28;20030;-68
2023/06/27 03:45:21;;;;;;;12.90;3.75;;;21.20;88.10;;;;;;5031052;28;20489;-69
2023/06/27 03:47:47;;;;;;;12.50;3.42;;;21.20;88.20;;;;;;5032834;28;20120;-69
2023/06/27 03:50:12;;;;;;;11.25;2.95;;;21.20;88.40;;;;;;5032548;28;20022;-70
2023/06/27 03:52:38;;;;;;;15.05;3.35;;;21.20;88.50;;;;;;5032469;28;20033;-69
2023/06/27 03:55:05;;;;;;;11.30;3.10;;;21.10;88.70;;;;;;5036322;28;20104;-69
2023/06/27 03:57:30;;;;;;;15.80;3.33;;;21.10;88.60;;;;;;5036455;28;20036;-70
2023/06/27 03:59:56;;;;;;;16.52;3.60;;;21.10;88.70;;;;;;5036210;28;20467;-76
2023/06/27 04:02:21;;;;;;;13.82;3.03;;;21.10;88.80;;;;;;5036161;28;20513;-69
2023/06/27 04:04:47;;;;;;;13.05;3.40;;;21.10;88.90;;;;;;5035059;28;20014;-68
2023/06/27 04:07:14;;;;;;;9.35;3.00;;;21.10;89.00;;;;;;5035933;28;20029;-69
2023/06/27 04:09:40;;;;;;;12.93;3.95;;;21.10;89.00;;;;;;5036380;28;20025;-77
2023/06/27 04:12:08;;;;;;;15.32;3.67;;;21.10;89.20;;;;;;5035925;28;20441;-77
2023/06/27 04:14:34;;;;;;;13.57;3.58;;;21.00;89.30;;;;;;5036058;28;20036;-72
2023/06/27 04:17:00;;;;;;;12.90;3.40;;;21.00;89.60;;;;;;5036138;28;20018;-68
2023/06/27 04:19:25;;;;;;;12.80;4.22;;;21.00;89.80;;;;;;5036242;28;20025;-68
2023/06/27 04:21:51;;;;;;;11.02;3.45;;;21.00;89.90;;;;;;5035419;28;20482;-70
2023/06/27 04:24:16;;;;;;;13.52;4.07;;;21.00;90.00;;;;;;5036074;28;20478;-69
2023/06/27 04:26:42;;;;;;;18.15;4.05;;;21.00;90.00;;;;;;5035840;28;20061;-69
2023/06/27 04:29:08;;;;;;;14.88;4.90;;;21.00;90.00;;;;;;5035687;28;20147;-68
2023/06/27 04:31:33;;;;;;;11.50;3.85;;;21.00;90.00;;;;;;5035691;28;20112;-70
2023/06/27 04:33:59;;;;;;;14.40;3.90;;;21.00;90.10;;;;;;5035631;28;20030;-74
2023/06/27 04:36:26;;;;;;;17.75;3.80;;;21.00;90.20;;;;;;5035344;28;20026;-69
2023/06/27 04:38:52;;;;;;;12.00;3.85;;;21.00;90.10;;;;;;5034320;28;20021;-68
2023/06/27 04:41:17;;;;;;;13.57;3.65;;;21.00;90.20;;;;;;5035573;28;20372;-68
2023/06/27 04:43:43;;;;;;;17.35;4.13;;;20.90;90.20;;;;;;5035423;28;20079;-68
2023/06/27 04:46:09;;;;;;;15.95;4.28;;;21.00;90.30;;;;;;5035405;28;20022;-68
2023/06/27 04:48:34;;;;;;;13.68;4.35;;;20.90;90.30;;;;;;5035390;28;20026;-68
2023/06/27 04:51:00;;;;;;;13.27;3.78;;;21.00;90.40;;;;;;5035056;28;20021;-73
2023/06/27 04:53:25;;;;;;;10.75;3.45;;;21.00;90.50;;;;;;5035190;28;20495;-71
2023/06/27 04:55:53;;;;;;;15.18;4.18;;;20.90;90.50;;;;;;5035310;28;20406;-69
2023/06/27 04:58:19;;;;;;;16.13;3.90;;;20.90;90.50;;;;;;5035171;28;20021;-69
2023/06/27 05:00:47;;;;;;;11.77;4.38;;;20.90;90.70;;;;;;5035048;28;20386;-69
2023/06/27 05:03:15;;;;;;;10.98;3.20;;;20.90;90.50;;;;;;5035031;28;20419;-68
2023/06/27 05:05:41;;;;;;;12.57;4.00;;;21.00;90.30;;;;;;5034404;28;20029;-69
2023/06/27 05:08:09;;;;;;;11.10;3.50;;;21.00;90.30;;;;;;5031198;28;20035;-69
2023/06/27 05:10:35;;;;;;;11.23;3.92;;;21.00;90.30;;;;;;5020448;28;20034;-70
2023/06/27 05:13:01;;;;;;;14.57;4.35;;;21.00;90.20;;;;;;5014803;28;20128;-69
2023/06/27 05:15:27;;;;;;;14.52;4.20;;;21.00;90.40;;;;;;5018185;28;20391;-68
2023/06/27 05:18:15;;;;;;;11.32;4.05;;;21.00;90.40;;;;;;5021650;28;20077;-69
2023/06/27 05:20:41;;;;;;;15.23;3.95;;;21.00;90.50;;;;;;5022872;28;20018;-76
2023/06/27 05:23:07;;;;;;;9.85;4.10;;;21.00;90.40;;;;;;5028506;28;20065;-68
2023/06/27 05:25:33;;;;;;;12.38;4.28;;;21.00;90.50;;;;;;5032446;28;20494;-68
2023/06/27 05:28:00;;;;;;;15.02;4.57;;;21.00;90.60;;;;;;5016654;28;20041;-71
2023/06/27 05:30:26;;;;;;;10.63;4.07;;;21.00;90.70;;;;;;5024820;28;20028;-68
2023/06/27 05:32:52;;;;;;;10.73;4.20;;;21.00;90.70;;;;;;5028384;28;20095;-68
2023/06/27 05:35:20;;;;;;;13.65;3.92;;;21.00;90.80;;;;;;5028124;28;20026;-70
2023/06/27 05:37:46;;;;;;;15.95;4.88;;;21.00;90.90;;;;;;5022718;28;20029;-70
2023/06/27 05:40:12;;;;;;;10.63;4.00;;;21.00;91.20;;;;;;5017684;28;20068;-68
2023/06/27 05:42:38;;;;;;;11.55;4.07;;;21.10;91.40;;;;;;5027652;28;20037;-72
2023/06/27 05:45:05;;;;;;;12.90;4.18;;;21.20;91.30;;;;;;5034144;28;20025;-72
2023/06/27 05:47:30;;;;;;;15.98;4.05;;;21.30;91.40;;;;;;5027270;28;20033;-76
2023/06/27 05:49:56;;;;;;;12.20;4.07;;;21.30;91.20;;;;;;5032407;28;20359;-76
2023/06/27 05:52:22;;;;;;;9.65;3.65;;;21.40;91.30;;;;;;5021943;28;20390;-76
2023/06/27 05:54:49;;;;;;;17.40;4.55;;;21.50;91.20;;;;;;5026974;28;20474;-73
2023/06/27 05:57:15;;;;;;;10.23;3.95;;;21.60;91.10;;;;;;5028967;28;20037;-76
2023/06/27 05:59:40;;;;;;;12.45;3.80;;;21.60;91.20;;;;;;5034105;28;20020;-70
2023/06/27 06:02:06;;;;;;;12.38;4.57;;;21.70;91.00;;;;;;5031569;28;20034;-69
2023/06/27 06:04:32;;;;;;;8.98;3.22;;;21.80;90.90;;;;;;5029867;28;20021;-68
2023/06/27 06:07:00;;;;;;;16.27;3.65;;;21.90;90.70;;;;;;5032080;28;20038;-68
2023/06/27 06:09:26;;;;;;;11.20;3.08;;;22.00;90.70;;;;;;5033687;28;20036;-68
2023/06/27 06:11:52;;;;;;;11.70;3.88;;;22.00;90.40;;;;;;5029576;28;20033;-68
2023/06/27 06:14:17;;;;;;;14.00;3.95;;;22.10;90.50;;;;;;5026115;28;20513;-68
2023/06/27 06:16:43;;;;;;;10.30;3.85;;;22.20;90.20;;;;;;5024542;28;20022;-69
2023/06/27 06:19:09;;;;;;;10.90;3.55;;;22.30;90.20;;;;;;5013454;28;20049;-72
2023/06/27 06:21:36;;;;;;;13.75;3.67;;;22.40;90.00;;;;;;5027429;28;20056;-76
2023/06/27 06:24:02;;;;;;;9.43;2.50;;;22.50;90.10;;;;;;5032130;28;20124;-67
2023/06/27 06:26:28;;;;;;;13.40;3.22;;;22.50;89.80;;;;;;5017763;28;20105;-68
2023/06/27 06:28:53;;;;;;;7.90;2.80;;;22.50;89.60;;;;;;5019151;28;20056;-68
2023/06/27 06:31:21;;;;;;;15.85;3.65;;;22.50;89.40;;;;;;5013149;28;20368;-79
2023/06/27 06:33:48;;;;;;;11.88;3.17;;;22.60;90.00;;;;;;5014774;28;20037;-80
2023/06/27 06:36:14;;;;;;;13.57;4.07;;;22.70;89.80;;;;;;5031174;28;20466;-77
2023/06/27 06:38:40;;;;;;;11.32;3.47;;;22.70;89.30;;;;;;5016300;28;20087;-79
2023/06/27 06:41:06;;;;;;;11.57;3.30;;;22.70;89.00;;;;;;5012996;28;20116;-68
2023/06/27 06:43:32;;;;;;;10.20;3.67;;;22.70;88.60;;;;;;5013352;28;20170;-70
2023/06/27 06:45:58;;;;;;;8.30;3.03;;;22.80;88.70;;;;;;5022846;28;20028;-72
2023/06/27 06:48:24;;;;;;;9.98;3.10;;;22.90;89.00;;;;;;5023641;28;20033;-80
2023/06/27 06:50:51;;;;;;;13.10;3.42;;;23.00;89.20;;;;;;5026754;28;20025;-66
2023/06/27 06:53:20;;;;;;;15.30;3.70;;;23.00;89.20;;;;;;5014998;28;20038;-67
2023/06/27 06:55:46;;;;;;;12.60;3.58;;;23.00;89.40;;;;;;5031732;28;20029;-67
2023/06/27 06:58:12;;;;;;;12.60;3.60;;;23.00;89.30;;;;;;5031673;28;20466;-67
2023/06/27 07:00:38;;;;;;;12.48;3.08;;;23.10;89.10;;;;;;5030128;28;20104;-67
2023/06/27 07:03:04;;;;;;;18.20;3.55;;;23.10;89.00;;;;;;5032276;28;20052;-68
2023/06/27 07:05:30;;;;;;;9.90;3.00;;;23.20;89.30;;;;;;5026905;28;20033;-68
2023/06/27 07:07:56;;;;;;;8.90;2.72;;;23.20;87.80;;;;;;5022646;28;20080;-70
2023/06/27 07:10:22;;;;;;;10.55;2.50;;;23.30;86.50;;;;;;5026858;28;20033;-68
2023/06/27 07:12:48;;;;;;;9.15;2.63;;;23.40;86.40;;;;;;5021354;28;20553;-71
2023/06/27 07:15:15;;;;;;;12.82;2.55;;;23.40;86.10;;;;;;5020854;28;20462;-68
2023/06/27 07:17:41;;;;;;;9.63;2.92;;;23.50;86.00;;;;;;5021815;28;20030;-67
2023/06/27 07:20:08;;;;;;;8.65;2.40;;;23.40;86.30;;;;;;5031912;28;20025;-66
2023/06/27 07:22:34;;;;;;;8.40;3.00;;;23.50;85.20;;;;;;5028617;28;20418;-68
2023/06/27 07:25:00;;;;;;;6.45;2.88;;;23.60;84.50;;;;;;5013235;28;20029;-62
2023/06/27 07:27:25;;;;;;;10.68;2.92;;;23.60;84.30;;;;;;5023181;28;20033;-64
2023/06/27 07:29:51;;;;;;;8.57;2.40;;;23.60;84.60;;;;;;5028939;28;20030;-73
2023/06/27 07:32:17;;;;;;;8.65;2.72;;;23.60;84.70;;;;;;5018249;28;20129;-75
2023/06/27 07:34:42;;;;;;;8.10;2.08;;;23.60;84.60;;;;;;5024284;28;20029;-74
2023/06/27 07:37:08;;;;;;;10.45;2.80;;;23.70;83.60;;;;;;5020822;28;20510;-70
2023/06/27 07:39:33;;;;;;;8.77;2.50;;;23.70;83.20;;;;;;5031176;28;20047;-76
2023/06/27 07:41:59;;;;;;;5.88;2.15;;;23.70;83.40;;;;;;5033176;28;20437;-74
2023/06/27 07:44:25;;;;;;;7.53;2.17;;;23.70;82.80;;;;;;5021297;28;20033;-70
2023/06/27 07:46:51;;;;;;;7.10;2.10;;;23.80;82.90;;;;;;5022456;28;20144;-64
2023/06/27 07:49:16;;;;;;;9.93;2.30;;;23.80;83.00;;;;;;5021433;28;20120;-68
2023/06/27 07:51:43;;;;;;;9.93;2.17;;;23.80;82.30;;;;;;5026841;28;20025;-66
2023/06/27 07:54:09;;;;;;;11.82;2.65;;;23.80;81.80;;;;;;5023609;28;20081;-67
2023/06/27 07:56:35;;;;;;;7.45;2.97;;;23.80;82.20;;;;;;5022996;28;20382;-64
2023/06/27 07:59:02;;;;;;;8.40;2.90;;;23.80;81.80;;;;;;5022250;28;20033;-65
2023/06/27 08:01:28;;;;;;;8.18;3.13;;;23.90;82.00;;;;;;5025010;28;20028;-66
2023/06/27 08:03:54;;;;;;;8.57;2.22;;;23.90;82.40;;;;;;5030950;28;20038;-66
2023/06/27 08:06:19;;;;;;;6.75;2.13;;;23.90;82.40;;;;;;5023362;28;20026;-64
2023/06/27 08:08:45;;;;;;;9.43;2.83;;;24.00;82.40;;;;;;5019882;28;20521;-62
2023/06/27 08:11:11;;;;;;;5.20;1.90;;;24.00;82.10;;;;;;5019919;28;20121;-73
2023/06/27 08:13:41;;;;;;;5.43;2.20;;;24.00;81.90;;;;;;5025853;28;20402;-63
2023/06/27 08:16:09;;;;;;;7.68;2.22;;;24.00;82.30;;;;;;5023782;28;20067;-84
2023/06/27 08:18:35;;;;;;;8.10;1.80;;;24.00;82.30;;;;;;5023094;28;20029;-76
2023/06/27 08:21:01;;;;;;;7.38;2.05;;;24.10;82.20;;;;;;5025260;28;20052;-73
2023/06/27 08:23:27;;;;;;;7.40;1.98;;;24.10;82.00;;;;;;5032283;28;20116;-81
2023/06/27 08:25:54;;;;;;;8.60;1.65;;;24.10;81.50;;;;;;5021685;28;20560;-80
2023/06/27 08:28:20;;;;;;;5.70;2.08;;;24.10;81.90;;;;;;5023407;28;20022;-74
2023/06/27 08:30:46;;;;;;;8.90;2.13;;;24.20;80.90;;;;;;5022932;28;20018;-65
2023/06/27 08:33:12;;;;;;;10.77;2.22;;;24.20;80.70;;;;;;5024534;28;20033;-71
2023/06/27 08:35:38;;;;;;;11.57;2.45;;;24.20;81.40;;;;;;5026592;28;20024;-70
2023/06/27 08:38:04;;;;;;;6.53;1.88;;;24.20;81.60;;;;;;5018675;28;20029;-69
2023/06/27 08:40:34;;;;;;;8.55;1.83;;;24.30;79.80;;;;;;5028537;28;20033;-71
2023/06/27 08:43:00;;;;;;;7.10;2.10;;;24.30;80.90;;;;;;5026485;28;20026;-71
2023/06/27 08:45:26;;;;;;;8.07;1.70;;;24.30;79.70;;;;;;5028896;28;20031;-69
2023/06/27 08:47:51;;;;;;;6.68;1.55;;;24.30;80.30;;;;;;5030734;28;20018;-72
2023/06/27 08:50:20;;;;;;;4.78;1.33;;;24.40;80.60;;;;;;5016712;28;20490;-73
2023/06/27 08:52:53;;;;;;;7.53;1.92;;;24.30;80.20;;;;;;5022084;28;20151;-70
2023/06/27 08:55:41;;;;;;;7.70;1.63;;;24.40;79.80;;;;;;5020915;28;20040;-69
2023/06/27 08:58:13;;;;;;;7.93;1.85;;;24.40;78.80;;;;;;5030380;28;20018;-69
2023/06/27 09:00:39;;;;;;;5.70;1.55;;;24.40;78.40;;;;;;5017109;28;20028;-68
2023/06/27 09:03:07;;;;;;;9.63;1.77;;;24.50;78.20;;;;;;5024349;28;20419;-72
2023/06/27 09:05:34;;;;;;;6.10;2.00;;;24.50;78.10;;;;;;5028958;28;20024;-70
2023/06/27 09:07:59;;;;;;;7.90;1.52;;;24.60;75.30;;;;;;5025121;28;20026;-67
2023/06/27 09:10:25;;;;;;;5.50;1.35;;;24.60;76.30;;;;;;5021593;28;20152;-69
2023/06/27 09:12:53;;;;;;;3.78;1.20;;;24.60;77.40;;;;;;5030196;28;20060;-68
2023/06/27 09:15:19;;;;;;;4.57;1.35;;;24.70;77.60;;;;;;5029927;28;20025;-70
2023/06/27 09:17:45;;;;;;;7.95;1.67;;;24.60;78.00;;;;;;5026577;28;20363;-66
2023/06/27 09:20:15;;;;;;;5.32;1.70;;;24.70;78.00;;;;;;5023349;28;20085;-70
2023/06/27 09:22:42;;;;;;;9.45;1.42;;;24.70;78.20;;;;;;5025820;28;20042;-69
2023/06/27 09:25:15;;;;;;;6.10;1.25;;;24.70;78.10;;;;;;5022694;28;20026;-70
2023/06/27 09:27:41;;;;;;;7.38;1.75;;;24.80;77.70;;;;;;5022492;28;20029;-70
2023/06/27 09:30:11;;;;;;;4.30;1.42;;;24.80;75.80;;;;;;5024077;28;20069;-69
2023/06/27 09:32:56;;;;;;;8.40;1.85;;;24.80;76.10;;;;;;5021083;28;20049;-67
2023/06/27 09:35:23;;;;;;;6.60;1.60;;;24.80;76.70;;;;;;5018243;28;20029;-64
2023/06/27 09:37:50;;;;;;;4.43;1.40;;;24.80;77.30;;;;;;5015403;28;20038;-70
2023/06/27 09:40:25;;;;;;;9.93;1.70;;;24.80;77.10;;;;;;5023539;28;20033;-66
2023/06/27 09:42:55;;;;;;;5.63;1.67;;;24.80;77.10;;;;;;5029548;28;20030;-70
2023/06/27 09:45:23;;;;;;;6.93;1.88;;;24.90;77.30;;;;;;5025979;28;20419;-71
2023/06/27 09:47:52;;;;;;;5.28;1.33;;;24.90;77.40;;;;;;5025966;28;20028;-69
2023/06/27 09:50:25;;;;;;;5.57;1.23;;;24.90;77.30;;;;;;5018464;28;20509;-69
2023/06/27 09:52:56;;;;;;;4.97;1.77;;;24.90;77.40;;;;;;5014987;28;20037;-64
2023/06/27 09:55:22;;;;;;;9.07;1.90;;;24.90;77.20;;;;;;5023168;28;20034;-67
2023/06/27 09:57:48;;;;;;;20.10;2.88;;;24.90;75.40;;;;;;5020757;28;20034;-68
2023/06/27 10:00:17;;;;;;;7.35;1.67;;;25.00;75.40;;;;;;5032560;28;20040;-68
2023/06/27 10:02:49;;;;;;;4.82;1.40;;;24.90;75.30;;;;;;5021302;28;20032;-70
2023/06/27 10:05:15;;;;;;;4.53;0.95;;;25.00;74.30;;;;;;5018027;28;20032;-67
2023/06/27 10:07:43;;;;;;;8.50;1.55;;;25.00;73.50;;;;;;5029076;28;20033;-70
2023/06/27 10:10:10;;;;;;;6.22;1.00;;;25.10;72.60;;;;;;5019209;28;20163;-69
2023/06/27 10:12:36;;;;;;;4.55;0.80;;;25.10;73.40;;;;;;5020143;28;20042;-71
2023/06/27 10:15:03;;;;;;;4.93;1.42;;;25.10;73.50;;;;;;5017416;28;20136;-71
2023/06/27 10:17:29;;;;;;;10.23;1.45;;;25.10;74.00;;;;;;5025930;28;20482;-69
2023/06/27 10:19:56;;;;;;;7.75;2.10;;;25.20;74.70;;;;;;5020603;28;20028;-66
2023/06/27 10:22:26;;;;;;;10.02;2.33;;;25.20;75.40;;;;;;5018382;28;20033;-71
2023/06/27 10:24:56;;;;;;;4.68;2.13;;;25.10;75.40;;;;;;5021585;28;20021;-69
2023/06/27 10:27:24;;;;;;;9.50;2.35;;;25.10;75.60;;;;;;5025654;28;20057;-66
2023/06/27 10:29:50;;;;;;;5.32;2.00;;;25.10;75.40;;;;;;5016744;28;20021;-70
2023/06/27 10:32:17;;;;;;;8.07;2.30;;;25.10;75.20;;;;;;5017273;28;21425;-69
2023/06/27 10:34:43;;;;;;;12.10;2.50;;;25.20;73.60;;;;;;5018342;28;20018;-68
2023/06/27 10:37:21;;;;;;;8.73;2.33;;;25.30;73.70;;;;;;5018677;28;20083;-71
2023/06/27 10:40:07;;;;;;;8.02;2.03;;;25.20;75.10;;;;;;5019967;28;20021;-69
2023/06/27 10:42:32;;;;;;;7.15;2.33;;;25.30;75.80;;;;;;5018856;28;20381;-70
2023/06/27 10:45:09;;;;;;;5.30;1.75;;;25.30;75.50;;;;;;5021153;28;20474;-68
2023/06/27 10:47:42;;;;;;;7.63;2.03;;;25.20;75.60;;;;;;5019687;28;20144;-70
2023/06/27 10:50:13;;;;;;;5.50;1.80;;;25.30;75.20;;;;;;5022272;28;20027;-71
2023/06/27 10:52:40;;;;;;;7.60;2.20;;;25.20;75.10;;;;;;5023304;28;20124;-65
2023/06/27 10:55:15;;;;;;;6.47;1.95;;;25.30;75.00;;;;;;5022600;28;20033;-72
2023/06/27 10:57:47;;;;;;;6.45;1.60;;;25.30;73.90;;;;;;5026292;28;20034;-70
2023/06/27 11:00:22;;;;;;;6.38;1.63;;;25.30;73.40;;;;;;5023694;28;20025;-70
2023/06/27 11:02:49;;;;;;;4.47;1.42;;;25.30;74.10;;;;;;5022347;28;20474;-68
2023/06/27 11:05:18;;;;;;;6.70;1.50;;;25.30;73.80;;;;;;5018498;28;20100;-69
2023/06/27 11:07:57;;;;;;;3.83;1.48;;;25.30;74.50;;;;;;5022706;28;20507;-69
2023/06/27 11:10:29;;;;;;;4.57;1.48;;;25.30;73.90;;;;;;5018275;28;20509;-66
2023/06/27 11:13:23;;;;;;;10.73;1.87;;;25.40;73.00;;;;;;5023012;28;20112;-66
2023/06/27 11:15:53;;;;;;;7.05;1.98;;;25.40;73.00;;;;;;5016914;28;20037;-67
2023/06/27 11:18:20;;;;;;;6.53;1.25;;;25.30;73.30;;;;;;5016881;28;20036;-65
2023/06/27 11:20:46;;;;;;;12.70;1.17;;;25.40;73.20;;;;;;5019330;28;20033;-67
2023/06/27 11:23:13;;;;;;;4.40;1.48;;;25.40;72.90;;;;;;5021195;28;20032;-68
2023/06/27 11:25:42;;;;;;;6.38;1.25;;;25.40;73.00;;;;;;5017028;28;21116;-66
2023/06/27 11:28:11;;;;;;;8.35;1.50;;;25.40;72.90;;;;;;5021363;28;20025;-69
2023/06/27 11:30:37;;;;;;;12.32;1.17;;;25.40;73.10;;;;;;5013300;28;20041;-68
2023/06/27 11:33:03;;;;;;;8.23;1.02;;;25.50;72.60;;;;;;5018262;28;20021;-67
2023/06/27 11:35:31;;;;;;;7.55;1.55;;;25.50;72.40;;;;;;5024579;28;20032;-65
2023/06/27 11:37:57;;;;;;;7.35;1.40;;;25.50;72.60;;;;;;5022356;28;20030;-65
2023/06/27 11:40:27;;;;;;;5.32;1.10;;;25.50;72.20;;;;;;5021277;28;20108;-68
2023/06/27 11:43:19;;;;;;;5.53;1.05;;;25.50;72.00;;;;;;5021052;28;20021;-66
2023/06/27 11:45:46;;;;;;;7.88;1.38;;;25.50;71.30;;;;;;5012128;28;20116;-66
2023/06/27 11:48:11;;;;;;;5.72;1.13;;;25.50;71.80;;;;;;5022585;28;20077;-64
2023/06/27 11:51:13;;;;;;;6.63;0.90;;;25.50;71.80;;;;;;5013394;28;20072;-68
2023/06/27 11:53:44;;;;;;;3.53;1.02;;;25.60;72.00;;;;;;5023205;28;20038;-67
2023/06/27 11:56:10;;;;;;;5.63;0.98;;;25.50;71.60;;;;;;5024896;28;20032;-69
2023/06/27 11:58:37;;;;;;;6.25;0.90;;;25.50;71.40;;;;;;5027810;28;20096;-68
2023/06/27 12:01:15;;;;;;;5.43;1.00;;;25.60;70.30;;;;;;5020680;28;20490;-67
2023/06/27 12:03:47;;;;;;;9.43;1.30;;;25.60;71.70;;;;;;5019249;28;20091;-66
2023/06/27 12:06:26;;;;;;;6.78;0.80;;;25.60;71.90;;;;;;5021969;28;20033;-66
2023/06/27 12:08:52;;;;;;;6.57;1.45;;;25.70;71.60;;;;;;5021557;28;20041;-67
2023/06/27 12:11:24;;;;;;;5.28;1.58;;;25.70;71.80;;;;;;5024278;28;20034;-66
2023/06/27 12:13:51;;;;;;;4.85;0.80;;;25.70;70.90;;;;;;5024601;28;20513;-67
2023/06/27 12:16:33;;;;;;;4.03;1.50;;;25.70;71.00;;;;;;5018558;28;20116;-69
2023/06/27 12:19:03;;;;;;;;;;;25.80;70.00;;;;;;5023682;28;20049;-64
2023/06/27 12:21:29;;;;;;;5.63;1.27;;;25.80;71.30;;;;;;5029103;28;19978;-64
2023/06/27 12:23:55;;;;;;;6.03;1.13;;;25.80;72.10;;;;;;5024371;28;20079;-64
2023/06/27 12:26:20;;;;;;;6.13;1.10;;;25.80;71.90;;;;;;5023392;28;20474;-65
2023/06/27 12:28:55;;;;;;;7.70;0.90;;;25.80;71.90;;;;;;5024023;28;20033;-63
2023/06/27 12:31:21;;;;;;;4.13;1.27;;;25.80;72.20;;;;;;5024743;28;20038;-66
2023/06/27 12:33:46;;;;;;;4.90;1.10;;;25.80;70.50;;;;;;5029383;28;20043;-64
2023/06/27 12:36:14;;;;;;;3.75;0.95;;;25.80;70.20;;;;;;5028169;28;20044;-68
2023/06/27 12:38:40;;;;;;;3.15;0.90;;;25.80;71.40;;;;;;5029382;28;20026;-64
2023/06/27 12:41:06;;;;;;;9.48;1.45;;;25.80;71.60;;;;;;5019365;28;20390;-63
2023/06/27 12:43:31;;;;;;;5.03;1.50;;;25.80;72.00;;;;;;5028093;28;20091;-63
2023/06/27 12:46:01;;;;;;;5.13;0.73;;;25.90;70.70;;;;;;5024015;28;20013;-64